Time;durP1;ratioP1;P1;durP2;ratioP2;P2;SDS_P1;SDS_P2;PMS_P1;PMS_P2;Temp;Humidity;BMP_temperature;BMP_pressure;BME280_temperature;BME280_humidity;BME280_pressure;Samples;Min_cycle;Max_cycle;Signal;HPM_P1;HPM_P2
2020/12/23 00:00:11;;;;;;;2.83;1.30;;;22.40;53.20;;;;;;5093021;28;20411;-67
2020/12/23 00:02:38;;;;;;;1.33;1.13;;;22.40;53.20;;;;;;5091884;28;20937;-68
2020/12/23 00:05:06;;;;;;;1.43;1.00;;;22.40;53.20;;;;;;5092822;28;20403;-67
2020/12/23 00:07:32;;;;;;;1.97;1.27;;;22.40;53.20;;;;;;5092901;28;20399;-67
2020/12/23 00:09:57;;;;;;;1.57;1.20;;;22.40;53.30;;;;;;5093101;28;20819;-67
2020/12/23 00:12:23;;;;;;;1.70;1.10;;;22.40;53.20;;;;;;5092865;28;20629;-67
2020/12/23 00:14:48;;;;;;;1.23;0.90;;;22.40;53.20;;;;;;5093140;28;20162;-67
2020/12/23 00:17:18;;;;;;;4.10;1.23;;;22.40;53.30;;;;;;5093766;28;20185;-67
2020/12/23 00:19:44;;;;;;;2.70;1.20;;;22.40;53.30;;;;;;5092755;28;20169;-68
2020/12/23 00:22:09;;;;;;;1.60;1.27;;;22.40;53.30;;;;;;5092848;28;20764;-67
2020/12/23 00:24:35;;;;;;;1.23;1.03;;;22.40;53.30;;;;;;5093344;28;20219;-67
2020/12/23 00:27:01;;;;;;;2.20;1.17;;;22.40;53.30;;;;;;5092749;28;20789;-68
2020/12/23 00:29:26;;;;;;;2.20;1.30;;;22.30;53.20;;;;;;5092989;28;20668;-68
2020/12/23 00:31:53;;;;;;;2.33;1.33;;;22.40;53.30;;;;;;5092674;28;20257;-67
2020/12/23 00:34:19;;;;;;;2.20;1.10;;;22.40;53.30;;;;;;5092993;28;20567;-68
2020/12/23 00:36:50;;;;;;;1.87;1.20;;;22.40;53.30;;;;;;5092692;28;20437;-68
2020/12/23 00:39:16;;;;;;;1.50;1.20;;;22.30;53.20;;;;;;5092957;28;20403;-67
2020/12/23 00:41:44;;;;;;;1.23;1.03;;;22.30;53.20;;;;;;5093196;28;20494;-67
2020/12/23 00:44:09;;;;;;;1.67;1.20;;;22.30;53.30;;;;;;5093592;28;20235;-68
2020/12/23 00:46:35;;;;;;;2.57;1.37;;;22.30;53.30;;;;;;5096357;28;20431;-67
2020/12/23 00:49:02;;;;;;;1.17;1.07;;;22.30;53.30;;;;;;5096299;28;20278;-68
2020/12/23 00:51:28;;;;;;;1.27;1.00;;;22.30;53.30;;;;;;5096346;28;20189;-68
2020/12/23 00:53:53;;;;;;;1.20;0.90;;;22.30;53.30;;;;;;5096749;28;20473;-68
2020/12/23 00:56:19;;;;;;;1.10;0.70;;;22.30;53.30;;;;;;5096184;28;20193;-68
2020/12/23 00:58:45;;;;;;;1.90;1.17;;;22.30;53.30;;;;;;5096452;28;20182;-67
2020/12/23 01:01:13;;;;;;;2.40;1.13;;;22.30;53.30;;;;;;5096380;28;20412;-67
2020/12/23 01:03:38;;;;;;;1.57;1.10;;;22.30;53.30;;;;;;5096377;28;20166;-67
2020/12/23 01:06:08;;;;;;;1.50;1.17;;;22.30;53.30;;;;;;5095974;28;20450;-67
2020/12/23 01:08:34;;;;;;;1.93;1.00;;;22.30;53.30;;;;;;5096049;28;20217;-68
2020/12/23 01:11:00;;;;;;;1.13;0.97;;;22.30;53.40;;;;;;5096226;28;20404;-67
2020/12/23 01:13:25;;;;;;;2.67;1.00;;;22.30;53.40;;;;;;5095891;28;20230;-68
2020/12/23 01:15:51;;;;;;;1.57;1.13;;;22.30;53.40;;;;;;5095817;28;20193;-67
2020/12/23 01:18:16;;;;;;;1.47;0.90;;;22.20;53.90;;;;;;5095796;28;20227;-68
2020/12/23 01:20:42;;;;;;;1.30;1.20;;;22.20;53.30;;;;;;5094499;28;20165;-67
2020/12/23 01:23:08;;;;;;;1.10;0.90;;;22.20;53.30;;;;;;5096041;28;20174;-67
2020/12/23 01:25:33;;;;;;;2.23;1.40;;;22.20;53.30;;;;;;5095832;28;20204;-67
2020/12/23 01:27:59;;;;;;;1.50;0.87;;;22.20;53.30;;;;;;5095668;28;20569;-67
2020/12/23 01:30:24;;;;;;;1.30;1.00;;;22.20;53.30;;;;;;5094179;28;20208;-67
2020/12/23 01:32:50;;;;;;;1.20;0.93;;;22.20;53.30;;;;;;5095595;28;20170;-67
2020/12/23 01:35:16;;;;;;;1.60;1.20;;;22.20;53.30;;;;;;5095675;28;20166;-68
2020/12/23 01:37:41;;;;;;;1.37;0.90;;;22.20;53.40;;;;;;5095672;28;20697;-67
2020/12/23 01:40:07;;;;;;;1.10;0.90;;;22.20;53.40;;;;;;5095403;28;20256;-67
2020/12/23 01:42:33;;;;;;;1.40;1.00;;;22.20;53.30;;;;;;5095406;28;20644;-68
2020/12/23 01:45:00;;;;;;;1.47;1.00;;;22.20;53.40;;;;;;5095301;28;20172;-68
2020/12/23 01:47:26;;;;;;;1.83;1.10;;;22.20;53.40;;;;;;5095396;28;20515;-67
2020/12/23 01:49:52;;;;;;;1.57;0.90;;;22.20;53.40;;;;;;5095093;28;20520;-67
2020/12/23 01:52:19;;;;;;;1.77;0.90;;;22.20;53.40;;;;;;5095107;28;20399;-67
2020/12/23 01:54:47;;;;;;;1.43;1.10;;;22.20;53.40;;;;;;5095041;28;20754;-68
2020/12/23 01:57:13;;;;;;;1.67;1.00;;;22.20;53.40;;;;;;5094521;28;20415;-67
2020/12/23 01:59:38;;;;;;;1.23;1.07;;;22.20;53.40;;;;;;5095030;28;20411;-67
2020/12/23 02:02:28;;;;;;;1.23;1.00;;;22.20;53.40;;;;;;5094968;28;20181;-68
2020/12/23 02:04:54;;;;;;;1.20;0.93;;;22.20;53.30;;;;;;5095160;28;20192;-67
2020/12/23 02:07:20;;;;;;;2.13;1.80;;;22.20;53.40;;;;;;5094731;28;20435;-67
2020/12/23 02:09:50;;;;;;;1.30;1.10;;;22.20;53.40;;;;;;5094705;28;20487;-67
2020/12/23 02:12:15;;;;;;;1.60;1.03;;;22.20;53.40;;;;;;5094697;28;20412;-68
2020/12/23 02:14:41;;;;;;;2.03;1.20;;;22.20;53.50;;;;;;5094572;28;20921;-67
2020/12/23 02:17:07;;;;;;;1.50;1.00;;;22.20;53.40;;;;;;5094578;28;20189;-67
2020/12/23 02:19:33;;;;;;;1.57;1.00;;;22.10;53.30;;;;;;5094841;28;20185;-68
2020/12/23 02:22:00;;;;;;;1.37;0.90;;;22.20;53.40;;;;;;5094870;28;21113;-67
2020/12/23 02:24:26;;;;;;;1.57;0.90;;;22.20;53.30;;;;;;5094750;28;20170;-67
2020/12/23 02:26:52;;;;;;;1.33;1.00;;;22.10;53.30;;;;;;5094385;28;20463;-67
2020/12/23 02:29:17;;;;;;;1.00;0.90;;;22.10;53.30;;;;;;5094212;28;20547;-67
2020/12/23 02:31:43;;;;;;;1.33;0.97;;;22.10;53.30;;;;;;5093097;28;20165;-67
2020/12/23 02:34:09;;;;;;;1.40;1.00;;;22.20;53.40;;;;;;5094646;28;20257;-68
2020/12/23 02:36:34;;;;;;;1.10;0.87;;;22.10;53.30;;;;;;5094219;28;20185;-67
2020/12/23 02:39:00;;;;;;;1.10;0.90;;;22.20;53.30;;;;;;5094255;28;20190;-67
2020/12/23 02:41:26;;;;;;;1.70;1.07;;;22.10;53.30;;;;;;5094490;28;20250;-67
2020/12/23 02:43:51;;;;;;;1.30;0.90;;;22.10;53.20;;;;;;5094183;28;20165;-67
2020/12/23 02:46:18;;;;;;;1.20;0.97;;;22.20;53.30;;;;;;5094047;28;20243;-67
2020/12/23 02:48:44;;;;;;;1.20;1.00;;;22.20;53.30;;;;;;5093985;28;20193;-67
2020/12/23 02:51:10;;;;;;;1.83;1.10;;;22.20;53.30;;;;;;5094533;28;20409;-67
2020/12/23 02:53:35;;;;;;;1.33;0.70;;;22.10;53.20;;;;;;5093975;28;20209;-67
2020/12/23 02:56:04;;;;;;;1.40;0.90;;;22.20;53.30;;;;;;5093871;28;20186;-67
2020/12/23 02:58:30;;;;;;;1.07;0.80;;;22.20;53.30;;;;;;5094134;28;20252;-68
2020/12/23 03:00:55;;;;;;;1.43;0.90;;;22.10;53.20;;;;;;5094127;28;20541;-68
2020/12/23 03:03:21;;;;;;;1.37;0.90;;;22.10;53.30;;;;;;5093847;28;20174;-67
2020/12/23 03:05:46;;;;;;;1.00;0.90;;;22.10;53.30;;;;;;5093919;28;20197;-68
2020/12/23 03:08:12;;;;;;;1.80;1.10;;;22.10;53.30;;;;;;5093792;28;20683;-67
2020/12/23 03:10:38;;;;;;;1.47;1.10;;;22.20;53.30;;;;;;5093659;28;20201;-67
2020/12/23 03:13:04;;;;;;;1.80;0.90;;;22.10;53.30;;;;;;5093911;28;20257;-67
2020/12/23 03:15:29;;;;;;;1.43;1.03;;;22.10;53.30;;;;;;5093692;28;20508;-67
2020/12/23 03:17:55;;;;;;;1.33;1.10;;;22.10;53.20;;;;;;5093569;28;20162;-68
2020/12/23 03:20:21;;;;;;;4.00;1.00;;;22.10;53.20;;;;;;5093963;28;20169;-68
2020/12/23 03:22:46;;;;;;;2.00;0.97;;;22.10;53.30;;;;;;5093741;28;20256;-67
2020/12/23 03:25:12;;;;;;;1.80;1.10;;;22.10;53.30;;;;;;5093348;28;20185;-67
2020/12/23 03:27:38;;;;;;;1.30;1.03;;;22.10;53.30;;;;;;5093410;28;20169;-67
2020/12/23 03:30:05;;;;;;;1.00;0.70;;;22.10;53.30;;;;;;5093176;28;20252;-67
2020/12/23 03:32:30;;;;;;;1.07;0.97;;;22.10;53.30;;;;;;5093413;28;20399;-67
2020/12/23 03:34:56;;;;;;;1.00;0.80;;;22.10;53.30;;;;;;5093506;28;20517;-68
2020/12/23 03:37:22;;;;;;;1.30;0.90;;;22.10;53.30;;;;;;5093264;28;20177;-67
2020/12/23 03:39:48;;;;;;;1.10;0.83;;;22.10;53.30;;;;;;5093364;28;20202;-67
2020/12/23 03:42:13;;;;;;;1.43;1.03;;;22.10;53.30;;;;;;5091990;28;20173;-67
2020/12/23 03:44:39;;;;;;;1.20;1.10;;;22.10;53.30;;;;;;5093577;28;20412;-68
2020/12/23 03:47:05;;;;;;;1.43;0.90;;;22.10;53.30;;;;;;5091939;28;20200;-67
2020/12/23 03:49:30;;;;;;;1.57;1.00;;;22.10;53.40;;;;;;5093376;28;20247;-67
2020/12/23 03:51:56;;;;;;;1.23;0.90;;;22.10;53.40;;;;;;5093984;28;20193;-67
2020/12/23 03:54:21;;;;;;;1.30;1.10;;;22.10;53.40;;;;;;5093214;28;20200;-68
2020/12/23 03:56:47;;;;;;;1.40;0.80;;;22.10;53.40;;;;;;5093140;28;20271;-67
2020/12/23 03:59:13;;;;;;;1.83;0.83;;;22.10;53.40;;;;;;5093245;28;20181;-67
2020/12/23 04:01:38;;;;;;;2.13;0.90;;;22.10;53.40;;;;;;5093344;28;20223;-67
2020/12/23 04:04:04;;;;;;;3.10;1.10;;;22.10;53.40;;;;;;5093028;28;20178;-67
2020/12/23 04:06:29;;;;;;;1.33;1.10;;;22.10;53.40;;;;;;5092617;28;20197;-68
2020/12/23 04:08:55;;;;;;;1.10;0.73;;;22.10;53.40;;;;;;5093160;28;20228;-68
2020/12/23 04:11:21;;;;;;;1.07;0.80;;;22.10;53.30;;;;;;5093435;28;20174;-67
2020/12/23 04:13:46;;;;;;;1.30;0.90;;;22.10;53.40;;;;;;5092944;28;20184;-68
2020/12/23 04:16:12;;;;;;;1.00;0.80;;;22.10;53.30;;;;;;5092755;28;20196;-68
2020/12/23 04:18:37;;;;;;;1.87;1.40;;;22.10;53.40;;;;;;5093985;28;20181;-66
2020/12/23 04:21:03;;;;;;;1.23;0.80;;;22.10;53.90;;;;;;5096908;28;20181;-67
2020/12/23 04:23:29;;;;;;;1.40;0.80;;;22.10;53.40;;;;;;5097136;28;20544;-68
2020/12/23 04:25:54;;;;;;;1.37;1.10;;;22.10;53.50;;;;;;5097004;28;20198;-68
2020/12/23 04:28:20;;;;;;;2.00;0.90;;;22.10;53.50;;;;;;5096841;28;20209;-68
2020/12/23 04:30:47;;;;;;;2.70;1.00;;;22.10;54.10;;;;;;5096719;28;20182;-67
2020/12/23 04:33:14;;;;;;;1.00;0.70;;;22.10;53.50;;;;;;5097232;28;20189;-68
2020/12/23 04:35:40;;;;;;;1.00;0.70;;;22.10;53.50;;;;;;5096846;28;20763;-66
2020/12/23 04:38:05;;;;;;;2.23;1.10;;;22.10;53.50;;;;;;5096603;28;20498;-68
2020/12/23 04:40:32;;;;;;;1.03;0.80;;;22.10;53.50;;;;;;5096555;28;20178;-68
2020/12/23 04:42:57;;;;;;;0.83;0.70;;;22.10;53.60;;;;;;5096812;28;20182;-67
2020/12/23 04:45:23;;;;;;;1.20;0.90;;;22.10;53.50;;;;;;5096618;28;20470;-67
2020/12/23 04:47:52;;;;;;;1.20;0.80;;;22.10;53.50;;;;;;5096332;28;20180;-67
2020/12/23 04:50:21;;;;;;;1.30;0.90;;;22.10;53.50;;;;;;5096667;28;20217;-67
2020/12/23 04:52:47;;;;;;;1.20;0.87;;;22.10;53.50;;;;;;5096566;28;20411;-67
2020/12/23 04:55:12;;;;;;;1.10;0.90;;;22.10;53.60;;;;;;5096179;28;20905;-68
2020/12/23 04:57:40;;;;;;;1.40;1.10;;;22.10;53.50;;;;;;5095047;28;20796;-67
2020/12/23 05:00:07;;;;;;;1.00;0.70;;;22.10;53.50;;;;;;5096125;28;20170;-67
2020/12/23 05:02:32;;;;;;;2.53;0.93;;;22.10;53.50;;;;;;5096094;28;20443;-68
2020/12/23 05:04:58;;;;;;;0.90;0.80;;;22.10;53.50;;;;;;5096314;28;20484;-67
2020/12/23 05:07:24;;;;;;;1.00;0.80;;;22.10;53.50;;;;;;5096207;28;20289;-67
2020/12/23 05:09:50;;;;;;;1.63;1.00;;;22.10;53.50;;;;;;5095934;28;20224;-67
2020/12/23 05:12:19;;;;;;;1.27;0.97;;;22.10;53.50;;;;;;5095937;28;20180;-67
2020/12/23 05:14:46;;;;;;;1.90;1.50;;;22.10;53.50;;;;;;5096136;28;20482;-67
2020/12/23 05:17:12;;;;;;;1.07;0.77;;;22.10;53.50;;;;;;5096258;28;20428;-67
2020/12/23 05:19:39;;;;;;;1.00;0.80;;;22.10;53.50;;;;;;5095768;28;20455;-67
2020/12/23 05:22:08;;;;;;;1.03;0.80;;;22.10;54.00;;;;;;5095688;28;20419;-67
2020/12/23 05:24:38;;;;;;;3.60;0.90;;;22.10;53.50;;;;;;5095707;28;20890;-67
2020/12/23 05:27:05;;;;;;;1.10;0.90;;;22.10;53.60;;;;;;5095603;28;20526;-67
2020/12/23 05:29:32;;;;;;;1.07;0.80;;;22.10;53.60;;;;;;5095570;28;20463;-67
2020/12/23 05:31:57;;;;;;;1.30;0.87;;;22.10;53.70;;;;;;5094377;28;20422;-67
2020/12/23 05:34:24;;;;;;;1.17;1.00;;;22.10;53.70;;;;;;5095738;28;20412;-67
2020/12/23 05:36:50;;;;;;;0.90;0.80;;;22.10;53.80;;;;;;5095460;28;20284;-67
2020/12/23 05:39:16;;;;;;;2.43;0.93;;;22.10;53.80;;;;;;5095404;28;20416;-67
2020/12/23 05:41:43;;;;;;;1.30;0.93;;;22.10;53.90;;;;;;5095658;28;20462;-67
2020/12/23 05:44:16;;;;;;;0.90;0.80;;;22.10;53.90;;;;;;5095600;28;20189;-67
2020/12/23 05:46:44;;;;;;;1.33;0.70;;;22.10;53.90;;;;;;5095253;28;20514;-67
2020/12/23 05:49:11;;;;;;;1.77;0.80;;;22.10;53.90;;;;;;5095098;28;20492;-67
2020/12/23 05:51:38;;;;;;;1.10;0.80;;;22.20;53.90;;;;;;5095225;28;20457;-67
2020/12/23 05:54:06;;;;;;;1.50;0.93;;;22.10;53.80;;;;;;5095153;28;20486;-67
2020/12/23 05:56:37;;;;;;;1.00;0.80;;;22.20;53.80;;;;;;5095013;28;20446;-67
2020/12/23 05:59:02;;;;;;;1.10;0.90;;;22.20;53.80;;;;;;5095005;28;20438;-67
2020/12/23 06:01:34;;;;;;;1.00;0.80;;;22.20;53.80;;;;;;5095021;28;20388;-67
2020/12/23 06:04:13;;;;;;;1.10;0.90;;;22.20;53.80;;;;;;5094970;28;20279;-67
2020/12/23 06:06:43;;;;;;;0.93;0.70;;;22.20;53.70;;;;;;5094887;28;20467;-68
2020/12/23 06:09:11;;;;;;;0.97;0.73;;;22.20;53.80;;;;;;5094727;28;20455;-67
2020/12/23 06:11:47;;;;;;;1.07;0.70;;;22.20;53.70;;;;;;5095129;28;20400;-68
2020/12/23 06:14:19;;;;;;;1.20;0.90;;;22.20;53.70;;;;;;5095026;28;20776;-67
2020/12/23 06:16:48;;;;;;;1.10;0.80;;;22.30;53.70;;;;;;5094738;28;20477;-67
2020/12/23 06:19:24;;;;;;;2.07;0.80;;;22.30;53.70;;;;;;5094924;28;20412;-67
2020/12/23 06:21:50;;;;;;;1.10;0.80;;;22.30;53.70;;;;;;5094526;28;20415;-68
2020/12/23 06:24:16;;;;;;;1.53;0.90;;;22.30;53.60;;;;;;5094597;28;20419;-67
2020/12/23 06:26:54;;;;;;;1.43;0.80;;;22.30;53.60;;;;;;5094415;28;20846;-67
2020/12/23 06:29:25;;;;;;;1.20;1.00;;;22.30;53.60;;;;;;5094425;28;20209;-67
2020/12/23 06:31:59;;;;;;;1.37;0.80;;;22.30;53.60;;;;;;5094716;28;20396;-67
2020/12/23 06:34:28;;;;;;;0.90;0.80;;;22.30;53.50;;;;;;5094680;28;20398;-67
2020/12/23 06:36:54;;;;;;;1.30;0.90;;;22.30;53.50;;;;;;5094234;28;20424;-68
2020/12/23 06:39:23;;;;;;;1.23;0.80;;;22.30;53.50;;;;;;5094437;28;20838;-67
2020/12/23 06:41:49;;;;;;;0.97;0.70;;;22.30;53.50;;;;;;5092633;28;20424;-67
2020/12/23 06:44:16;;;;;;;1.00;0.70;;;22.30;53.40;;;;;;5094454;28;20417;-67
2020/12/23 06:47:00;;;;;;;1.20;0.90;;;22.30;53.40;;;;;;5094033;28;20484;-67
2020/12/23 06:49:46;;;;;;;1.10;0.90;;;22.40;53.50;;;;;;5094195;28;20479;-67
2020/12/23 06:52:21;;;;;;;1.00;0.80;;;22.30;53.40;;;;;;5093931;28;20430;-67
2020/12/23 06:54:48;;;;;;;0.90;0.60;;;22.40;53.50;;;;;;5094192;28;20494;-67
2020/12/23 06:57:35;;;;;;;0.93;0.80;;;22.40;53.50;;;;;;5093818;28;20424;-67
2020/12/23 07:00:17;;;;;;;1.20;0.80;;;22.40;53.50;;;;;;5093815;28;20406;-67
2020/12/23 07:02:47;;;;;;;0.93;0.83;;;22.40;53.50;;;;;;5093884;28;20396;-67
2020/12/23 07:05:37;;;;;;;1.10;0.70;;;22.40;53.50;;;;;;5093972;28;20914;-67
2020/12/23 07:08:07;;;;;;;1.03;0.80;;;22.40;53.50;;;;;;5084101;28;20451;-67
2020/12/23 07:10:38;;;;;;;1.83;0.80;;;22.40;53.50;;;;;;5093666;28;20412;-67
2020/12/23 07:13:08;;;;;;;0.80;0.60;;;22.40;53.50;;;;;;5093663;28;20411;-67
2020/12/23 07:15:35;;;;;;;0.90;0.70;;;22.40;53.40;;;;;;5093179;28;20510;-68
2020/12/23 07:18:07;;;;;;;0.90;0.70;;;22.40;53.40;;;;;;5093421;28;20418;-67
2020/12/23 07:21:00;;;;;;;1.10;0.80;;;22.40;53.40;;;;;;5093653;28;20404;-68
2020/12/23 07:23:31;;;;;;;0.90;0.70;;;22.40;53.30;;;;;;5093578;28;20393;-67
2020/12/23 07:26:05;;;;;;;1.00;0.60;;;22.40;53.90;;;;;;5093328;28;20507;-67
2020/12/23 07:28:39;;;;;;;1.00;0.60;;;22.40;53.30;;;;;;5093592;28;20455;-68
2020/12/23 07:31:05;;;;;;;2.00;0.80;;;22.40;53.30;;;;;;5093263;28;20431;-67
2020/12/23 07:33:33;;;;;;;1.00;0.77;;;22.40;53.30;;;;;;5093586;28;20415;-68
2020/12/23 07:36:00;;;;;;;0.90;0.70;;;22.40;53.30;;;;;;5093552;28;20419;-67
2020/12/23 07:38:28;;;;;;;0.80;0.70;;;22.40;53.30;;;;;;5093612;28;20412;-67
2020/12/23 07:40:54;;;;;;;0.90;0.77;;;22.40;53.30;;;;;;5093050;28;20407;-67
2020/12/23 07:43:21;;;;;;;1.07;0.60;;;22.40;53.30;;;;;;5093454;28;20502;-67
2020/12/23 07:45:47;;;;;;;0.93;0.70;;;22.40;53.30;;;;;;5093221;28;20957;-68
2020/12/23 07:48:18;;;;;;;0.80;0.60;;;22.40;53.30;;;;;;5093405;28;20443;-67
2020/12/23 07:51:07;;;;;;;1.10;0.80;;;22.40;53.30;;;;;;5092955;28;20537;-67
2020/12/23 07:53:33;;;;;;;1.03;0.80;;;22.40;53.30;;;;;;5093020;28;20388;-68
2020/12/23 07:56:01;;;;;;;1.00;0.70;;;22.40;53.30;;;;;;5093008;28;20955;-68
2020/12/23 07:58:27;;;;;;;0.93;0.60;;;22.40;53.30;;;;;;5093296;28;20636;-68
2020/12/23 08:00:53;;;;;;;0.90;0.70;;;22.40;53.30;;;;;;5092969;28;20420;-69
2020/12/23 08:03:29;;;;;;;1.87;0.70;;;22.40;53.30;;;;;;5093001;28;20760;-67
2020/12/23 08:06:13;;;;;;;0.93;0.70;;;22.40;53.20;;;;;;5092678;28;20243;-67
2020/12/23 08:08:41;;;;;;;1.17;0.90;;;22.40;53.20;;;;;;5091563;28;20477;-67
2020/12/23 08:11:11;;;;;;;1.10;0.77;;;22.40;53.20;;;;;;5092897;28;20418;-67
2020/12/23 08:13:37;;;;;;;1.10;0.80;;;22.40;53.20;;;;;;5093034;28;20734;-67
2020/12/23 08:16:08;;;;;;;1.17;0.90;;;22.40;53.30;;;;;;5092799;28;20424;-67
2020/12/23 08:18:34;;;;;;;1.90;0.90;;;22.40;53.30;;;;;;5093070;28;20915;-67
2020/12/23 08:21:08;;;;;;;1.30;0.80;;;22.40;53.30;;;;;;5092592;28;20408;-67
2020/12/23 08:23:34;;;;;;;1.63;0.93;;;22.40;53.30;;;;;;5093080;28;20779;-67
2020/12/23 08:26:00;;;;;;;1.20;1.00;;;22.40;53.30;;;;;;5092701;28;20522;-67
2020/12/23 08:28:27;;;;;;;0.90;0.80;;;22.40;53.30;;;;;;5092888;28;20690;-68
2020/12/23 08:30:53;;;;;;;1.47;1.13;;;22.40;53.30;;;;;;5092632;28;20432;-67
2020/12/23 08:33:23;;;;;;;1.10;0.90;;;22.40;53.30;;;;;;5093051;28;20966;-70
2020/12/23 08:35:57;;;;;;;3.77;0.90;;;22.40;53.30;;;;;;5092850;28;20423;-71
2020/12/23 08:38:26;;;;;;;1.03;0.87;;;22.40;53.30;;;;;;5093121;28;20976;-71
2020/12/23 08:40:57;;;;;;;0.97;0.70;;;22.40;53.40;;;;;;5092670;28;20946;-68
2020/12/23 08:43:24;;;;;;;1.10;1.00;;;22.40;53.40;;;;;;5091754;28;20502;-69
2020/12/23 08:45:51;;;;;;;1.80;1.03;;;22.40;53.40;;;;;;5092499;28;20439;-75
2020/12/23 08:48:21;;;;;;;1.50;0.80;;;22.50;53.60;;;;;;5092361;28;20559;-68
2020/12/23 08:50:57;;;;;;;0.93;0.73;;;22.50;53.60;;;;;;5092407;28;20411;-71
2020/12/23 08:53:30;;;;;;;0.90;0.70;;;22.50;53.60;;;;;;5093626;28;20445;-70
2020/12/23 08:55:56;;;;;;;2.70;1.00;;;22.50;53.60;;;;;;5092693;28;20846;-71
2020/12/23 08:58:23;;;;;;;1.30;1.20;;;22.50;53.50;;;;;;5092568;28;20437;-71
2020/12/23 09:01:02;;;;;;;1.70;0.90;;;22.50;53.50;;;;;;5092179;28;20219;-71
2020/12/23 09:03:28;;;;;;;1.37;1.10;;;22.50;53.50;;;;;;5092165;28;20424;-71
2020/12/23 09:05:57;;;;;;;1.93;1.20;;;22.50;53.60;;;;;;5094559;28;20450;-70
2020/12/23 09:08:27;;;;;;;1.20;1.10;;;22.60;53.70;;;;;;5096186;28;20510;-70
2020/12/23 09:10:57;;;;;;;1.40;0.90;;;22.60;53.60;;;;;;5095998;28;20479;-73
2020/12/23 09:13:30;;;;;;;1.03;0.87;;;22.60;53.60;;;;;;5094185;28;20411;-71
2020/12/23 09:15:57;;;;;;;1.63;1.10;;;22.60;53.60;;;;;;5093650;28;20423;-73
2020/12/23 09:18:23;;;;;;;1.37;0.90;;;22.60;53.70;;;;;;5093983;28;20748;-72
2020/12/23 09:21:03;;;;;;;1.10;0.80;;;22.60;53.70;;;;;;5093498;28;20422;-71
2020/12/23 09:23:29;;;;;;;1.20;1.10;;;22.60;53.60;;;;;;5093925;28;20170;-71
2020/12/23 09:25:55;;;;;;;1.30;0.80;;;22.60;53.60;;;;;;5093533;28;20428;-72
2020/12/23 09:28:23;;;;;;;1.70;0.90;;;22.60;53.60;;;;;;5094364;28;20565;-71
2020/12/23 09:30:50;;;;;;;1.50;0.80;;;22.60;53.60;;;;;;5095455;28;20423;-70
2020/12/23 09:33:18;;;;;;;1.00;0.70;;;22.60;53.60;;;;;;5095781;28;20878;-69
2020/12/23 09:35:46;;;;;;;1.07;0.80;;;22.60;53.60;;;;;;5095349;28;20435;-72
2020/12/23 09:38:19;;;;;;;0.90;0.70;;;22.60;53.60;;;;;;5095321;28;20913;-68
2020/12/23 09:40:48;;;;;;;2.70;1.30;;;22.60;53.60;;;;;;5095203;28;20396;-71
2020/12/23 09:43:19;;;;;;;1.13;0.90;;;22.60;53.60;;;;;;5095337;28;20408;-71
2020/12/23 09:45:50;;;;;;;1.33;1.20;;;22.70;53.70;;;;;;5095244;28;20513;-72
2020/12/23 09:48:17;;;;;;;1.00;0.80;;;22.60;53.70;;;;;;5095270;28;20451;-72
2020/12/23 09:50:43;;;;;;;1.27;0.80;;;22.70;53.80;;;;;;5095072;28;20431;-72
2020/12/23 09:53:10;;;;;;;1.10;0.80;;;22.60;53.70;;;;;;5095098;28;20414;-69
2020/12/23 09:55:42;;;;;;;1.63;0.90;;;22.70;54.40;;;;;;5095218;28;20466;-69
2020/12/23 09:58:08;;;;;;;1.30;0.80;;;22.60;53.70;;;;;;5095012;28;20399;-68
2020/12/23 10:00:34;;;;;;;1.63;0.87;;;22.70;53.80;;;;;;5094876;28;20396;-70
2020/12/23 10:03:00;;;;;;;2.23;1.00;;;22.60;53.60;;;;;;5095131;28;20400;-67
2020/12/23 10:05:26;;;;;;;0.93;0.70;;;22.70;53.70;;;;;;5094863;28;20211;-67
2020/12/23 10:07:52;;;;;;;1.00;0.77;;;22.70;53.70;;;;;;5095240;28;20173;-68
2020/12/23 10:10:18;;;;;;;1.03;0.93;;;22.60;53.50;;;;;;5094633;28;20451;-67
2020/12/23 10:12:43;;;;;;;1.20;0.80;;;22.60;53.40;;;;;;5094708;28;20767;-68
2020/12/23 10:15:09;;;;;;;1.43;0.80;;;22.60;53.40;;;;;;5094952;28;20178;-68
2020/12/23 10:17:35;;;;;;;1.30;0.90;;;22.60;53.40;;;;;;5094046;28;20170;-68
2020/12/23 10:20:01;;;;;;;1.27;0.93;;;22.60;53.40;;;;;;5094641;28;20169;-67
2020/12/23 10:22:27;;;;;;;1.57;0.90;;;22.60;53.40;;;;;;5094661;28;20894;-68
2020/12/23 10:24:53;;;;;;;4.00;0.90;;;22.60;53.40;;;;;;5094594;28;20713;-68
2020/12/23 10:27:18;;;;;;;2.00;0.77;;;22.70;53.50;;;;;;5093115;28;20213;-68
2020/12/23 10:29:44;;;;;;;1.63;0.90;;;22.60;53.40;;;;;;5093354;28;20213;-65
2020/12/23 10:32:10;;;;;;;1.40;0.90;;;22.70;53.40;;;;;;5093517;28;20205;-68
2020/12/23 10:34:36;;;;;;;1.83;1.00;;;22.60;53.40;;;;;;5094407;28;20438;-68
2020/12/23 10:37:01;;;;;;;3.07;1.10;;;22.60;53.30;;;;;;5094240;28;20597;-68
2020/12/23 10:39:27;;;;;;;2.60;1.37;;;22.60;53.40;;;;;;5094159;28;20247;-68
2020/12/23 10:41:54;;;;;;;2.23;1.30;;;22.60;53.50;;;;;;5093777;28;20759;-69
2020/12/23 10:44:21;;;;;;;3.23;1.60;;;22.60;53.80;;;;;;5093469;28;20170;-68
2020/12/23 10:46:47;;;;;;;3.03;1.80;;;22.70;54.00;;;;;;5093990;28;20427;-70
2020/12/23 10:49:13;;;;;;;4.50;1.80;;;22.60;54.00;;;;;;5094056;28;20494;-71
2020/12/23 10:51:38;;;;;;;2.40;1.30;;;22.60;54.00;;;;;;5094296;28;20416;-73
2020/12/23 10:54:04;;;;;;;5.00;1.30;;;22.60;54.10;;;;;;5094044;28;20170;-69
2020/12/23 10:56:29;;;;;;;2.43;1.40;;;22.60;54.30;;;;;;5093995;28;20248;-69
2020/12/23 10:58:55;;;;;;;2.37;1.43;;;22.60;54.30;;;;;;5093776;28;20189;-68
2020/12/23 11:01:21;;;;;;;3.50;1.77;;;22.60;54.30;;;;;;5093928;28;20172;-69
2020/12/23 11:03:46;;;;;;;3.10;1.80;;;22.60;54.40;;;;;;5093827;28;20184;-68
2020/12/23 11:06:14;;;;;;;3.33;1.60;;;22.60;54.60;;;;;;5093809;28;20202;-74
2020/12/23 11:08:40;;;;;;;2.80;1.60;;;22.70;54.80;;;;;;5093796;28;20205;-73
2020/12/23 11:11:06;;;;;;;3.73;1.80;;;22.70;54.80;;;;;;5094029;28;20828;-69
2020/12/23 11:13:32;;;;;;;3.90;1.50;;;22.70;54.70;;;;;;5093905;28;20422;-69
2020/12/23 11:15:57;;;;;;;4.10;1.83;;;22.70;54.70;;;;;;5093664;28;20699;-69
2020/12/23 11:18:23;;;;;;;3.33;1.53;;;22.70;54.40;;;;;;5094057;28;20256;-69
2020/12/23 11:20:48;;;;;;;4.53;1.67;;;22.70;54.80;;;;;;5093595;28;20170;-68
2020/12/23 11:23:26;;;;;;;4.40;1.67;;;22.70;54.70;;;;;;5093526;28;20175;-69
2020/12/23 11:25:52;;;;;;;4.57;1.60;;;22.70;54.80;;;;;;5092986;28;20727;-69
2020/12/23 11:28:18;;;;;;;8.20;2.07;;;22.70;54.80;;;;;;5091919;28;20443;-70
2020/12/23 11:30:44;;;;;;;5.37;2.23;;;22.70;54.70;;;;;;5092244;28;20435;-69
2020/12/23 11:33:10;;;;;;;4.43;1.70;;;22.70;54.50;;;;;;5092870;28;20436;-68
2020/12/23 11:35:35;;;;;;;4.10;1.73;;;22.70;54.40;;;;;;5092417;28;20869;-68
2020/12/23 11:38:01;;;;;;;3.00;1.90;;;22.70;54.30;;;;;;5093016;28;20576;-70
2020/12/23 11:40:27;;;;;;;3.83;1.60;;;22.70;54.20;;;;;;5093157;28;20698;-68
2020/12/23 11:42:52;;;;;;;3.70;1.60;;;22.70;54.20;;;;;;5074284;28;20713;-69
2020/12/23 11:45:18;;;;;;;3.00;1.40;;;22.70;54.00;;;;;;5092984;28;20170;-71
2020/12/23 11:47:43;;;;;;;4.30;1.73;;;22.70;53.90;;;;;;5092954;28;20173;-71
2020/12/23 11:50:09;;;;;;;3.20;1.77;;;22.70;53.90;;;;;;5091175;28;20591;-71
2020/12/23 11:52:35;;;;;;;3.37;2.20;;;22.70;53.90;;;;;;5093466;28;20688;-71
2020/12/23 11:55:00;;;;;;;3.40;1.67;;;22.70;53.80;;;;;;5093203;28;20208;-71
2020/12/23 11:57:26;;;;;;;5.13;1.63;;;22.70;53.80;;;;;;5093003;28;20185;-70
2020/12/23 11:59:52;;;;;;;4.83;1.73;;;22.70;53.80;;;;;;5093199;28;20186;-70
2020/12/23 12:02:17;;;;;;;2.83;1.80;;;22.70;53.70;;;;;;5092759;28;20188;-70
2020/12/23 12:04:43;;;;;;;5.27;2.10;;;22.70;53.70;;;;;;5093290;28;20173;-70
2020/12/23 12:07:08;;;;;;;4.17;1.87;;;22.70;53.70;;;;;;5092994;28;20190;-70
2020/12/23 12:09:34;;;;;;;3.70;1.90;;;22.70;53.70;;;;;;5093167;28;20235;-70
2020/12/23 12:12:00;;;;;;;4.43;1.50;;;22.70;53.70;;;;;;5093215;28;20169;-70
2020/12/23 12:14:25;;;;;;;6.07;2.03;;;22.70;53.70;;;;;;5092991;28;20636;-70
2020/12/23 12:16:51;;;;;;;3.03;2.07;;;22.70;53.70;;;;;;5091678;28;20192;-69
2020/12/23 12:19:16;;;;;;;4.40;2.60;;;22.70;53.70;;;;;;5093087;28;20182;-70
2020/12/23 12:21:42;;;;;;;6.27;2.43;;;22.70;53.70;;;;;;5093393;28;20209;-69
2020/12/23 12:24:08;;;;;;;2.97;1.90;;;22.70;53.70;;;;;;5091709;28;20182;-70
2020/12/23 12:26:34;;;;;;;4.33;2.00;;;22.70;53.70;;;;;;5092775;28;20198;-70
2020/12/23 12:29:00;;;;;;;3.07;2.00;;;22.70;53.70;;;;;;5092530;28;20254;-70
2020/12/23 12:31:27;;;;;;;6.87;2.30;;;22.70;53.70;;;;;;5092842;28;20475;-70
2020/12/23 12:33:53;;;;;;;4.00;2.30;;;22.70;53.70;;;;;;5092533;28;20416;-70
2020/12/23 12:36:20;;;;;;;3.60;2.83;;;22.70;53.70;;;;;;5092652;28;20902;-70
2020/12/23 12:38:46;;;;;;;5.00;2.13;;;22.70;53.70;;;;;;5092649;28;20418;-70
2020/12/23 12:41:12;;;;;;;4.20;2.20;;;22.70;53.70;;;;;;5095156;28;20894;-71
2020/12/23 12:43:37;;;;;;;5.00;2.50;;;22.70;53.70;;;;;;5095641;28;20204;-70
2020/12/23 12:46:06;;;;;;;3.20;2.07;;;22.70;53.70;;;;;;5095492;28;20196;-70
2020/12/23 12:48:31;;;;;;;4.40;2.33;;;22.70;53.70;;;;;;5095569;28;20193;-69